Time,TemperatureF,DewpointF,PressureIn,WindDirection,WindDirectionDegrees,WindSpeedMPH,WindSpeedGustMPH,Humidity,HourlyPrecipIn,Conditions,Clouds,dailyrainin,SoftwareType,DateUTC
2013-04-10 00:00:00,65.5,57.7,30.15,SSW,207,0.0,0.0,76,0.00,,---,0.00,VWS V14.01,2013-04-10 04:00:00,
2013-04-10 00:30:00,65.5,57.7,30.16,SSW,207,0.0,0.0,76,0.00,,---,0.00,VWS V14.01,2013-04-10 04:30:00,
2013-04-10 01:00:00,65.5,57.7,30.16,SSW,207,0.0,0.0,76,0.00,,---,0.00,VWS V14.01,2013-04-10 05:00:00,
2013-04-10 01:30:00,0.0,0.0,30.15,North,0,0.0,0.0,0,0.00,,---,0.00,VWS V14.01,2013-04-10 05:30:00,
2013-04-10 02:00:00,0.0,0.0,30.15,North,0,0.0,0.0,0,0.00,,---,0.00,VWS V14.01,2013-04-10 06:00:00,
2013-04-10 02:30:00,0.0,0.0,30.14,North,0,0.0,0.0,0,0.00,,---,0.00,VWS V14.01,2013-04-10 06:30:00,
2013-04-10 03:00:00,63.0,57.4,30.14,North,0,0.0,0.0,82,0.00,,---,0.00,VWS V14.01,2013-04-10 07:00:00,
2013-04-10 03:30:00,63.0,57.8,30.13,North,0,0.0,0.0,83,0.00,,---,0.00,VWS V14.01,2013-04-10 07:30:00,
2013-04-10 04:00:00,63.5,58.2,30.13,North,0,0.0,0.0,83,0.00,,---,0.00,VWS V14.01,2013-04-10 08:00:00,
2013-04-10 04:30:00,64.0,58.7,30.11,North,0,0.0,0.0,83,0.00,,---,0.00,VWS V14.01,2013-04-10 08:30:00,
2013-04-10 05:00:00,65.1,59.5,30.10,North,0,0.0,0.0,82,0.00,,---,0.00,VWS V14.01,2013-04-10 09:00:00,
2013-04-10 05:30:00,65.7,59.7,30.09,North,0,0.0,0.0,81,0.00,,---,0.00,VWS V14.01,2013-04-10 09:30:00,
2013-04-10 06:00:00,65.7,59.4,30.08,North,0,0.0,0.0,80,0.00,,---,0.00,VWS V14.01,2013-04-10 10:00:00,
2013-04-10 06:30:00,65.8,58.8,30.08,North,0,0.0,0.0,78,0.00,,---,0.00,VWS V14.01,2013-04-10 10:30:00,
2013-04-10 07:00:00,65.7,58.7,30.08,North,0,0.0,0.0,78,0.00,,---,0.00,VWS V14.01,2013-04-10 11:00:00,
2013-04-10 07:30:00,65.2,58.5,30.09,North,0,0.0,0.0,79,0.00,,---,0.00,VWS V14.01,2013-04-10 11:30:00,
2013-04-10 08:00:00,64.7,58.0,30.09,North,0,0.0,0.0,79,0.00,,---,0.00,VWS V14.01,2013-04-10 12:00:00,
2013-04-10 08:23:00,61.9,56.3,30.12,North,0,0.0,0.0,82,0.00,,---,0.00,VWS V14.01,2013-04-10 12:23:00,
2013-04-10 08:28:00,65.4,59.4,30.14,WNW,291,0.0,0.0,81,0.00,,---,0.00,VWS V14.01,2013-04-10 12:28:00,
2013-04-10 08:30:00,64.5,57.8,30.10,North,0,0.0,0.0,79,0.00,,---,0.00,VWS V14.01,2013-04-10 12:30:00,
2013-04-10 08:33:00,65.7,59.7,30.14,WNW,299,0.0,0.0,81,0.00,,---,0.00,VWS V14.01,2013-04-10 12:33:00,
2013-04-10 08:38:00,65.9,59.6,30.14,WNW,284,0.0,0.0,80,0.00,,---,0.00,VWS V14.01,2013-04-10 12:38:00,
2013-04-10 08:43:00,66.3,59.6,30.14,WSW,248,0.0,0.0,79,0.00,,---,0.00,VWS V14.01,2013-04-10 12:43:00,
2013-04-10 08:48:00,66.7,60.0,30.14,WSW,240,0.0,0.0,79,0.00,,---,0.00,VWS V14.01,2013-04-10 12:48:00,
2013-04-10 08:53:00,67.1,60.0,30.14,SW,221,0.0,0.0,78,0.00,,---,0.00,VWS V14.01,2013-04-10 12:53:00,
2013-04-10 08:58:00,67.4,60.0,30.14,WSW,241,0.0,0.0,77,0.00,,---,0.00,VWS V14.01,2013-04-10 12:58:00,
2013-04-10 09:00:00,63.9,57.6,30.10,North,0,0.0,0.0,80,0.00,,---,0.00,VWS V14.01,2013-04-10 13:00:00,
2013-04-10 09:03:00,67.9,60.1,30.14,SW,225,0.0,0.0,76,0.00,,---,0.00,VWS V14.01,2013-04-10 13:03:00,
2013-04-10 09:08:00,68.3,60.1,30.14,SW,223,0.0,0.0,75,0.00,,---,0.00,VWS V14.01,2013-04-10 13:08:00,
2013-04-10 09:13:00,68.7,60.1,30.15,SW,236,0.0,0.0,74,0.00,,---,0.00,VWS V14.01,2013-04-10 13:13:00,
2013-04-10 09:18:00,69.2,60.2,30.15,SW,228,0.0,0.0,73,0.00,,---,0.00,VWS V14.01,2013-04-10 13:18:00,
2013-04-10 09:23:00,69.5,60.1,30.15,SW,223,0.0,0.0,72,0.00,,---,0.00,VWS V14.01,2013-04-10 13:23:00,
2013-04-10 09:28:00,69.9,60.5,30.15,SW,217,0.0,0.0,72,0.00,,---,0.00,VWS V14.01,2013-04-10 13:28:00,
2013-04-10 09:30:00,62.8,56.9,30.11,North,0,0.0,0.0,81,0.00,,---,0.00,VWS V14.01,2013-04-10 13:30:00,
2013-04-10 09:33:00,70.3,60.1,30.15,SW,226,0.0,0.0,70,0.00,,---,0.00,VWS V14.01,2013-04-10 13:33:00,
2013-04-10 09:38:00,70.7,60.8,30.15,SW,214,0.0,0.0,71,0.00,,---,0.00,VWS V14.01,2013-04-10 13:38:00,
2013-04-10 09:43:00,71.1,60.4,30.15,WSW,238,0.0,0.0,69,0.00,,---,0.00,VWS V14.01,2013-04-10 13:43:00,
2013-04-10 09:48:00,71.3,60.6,30.15,SW,218,0.0,0.0,69,0.00,,---,0.00,VWS V14.01,2013-04-10 13:48:00,
2013-04-10 09:53:00,71.6,60.5,30.15,SW,217,0.0,0.0,68,0.00,,---,0.00,VWS V14.01,2013-04-10 13:53:00,
2013-04-10 09:58:00,71.2,60.1,30.15,SSW,200,0.0,0.0,68,0.00,,---,0.00,VWS V14.01,2013-04-10 13:58:00,
2013-04-10 10:00:00,62.0,56.1,30.11,North,0,0.0,0.0,81,0.00,,---,0.00,VWS V14.01,2013-04-10 14:00:00,
2013-04-10 10:03:00,70.7,59.6,30.15,SW,219,0.0,0.0,68,0.00,,---,0.00,VWS V14.01,2013-04-10 14:03:00,
2013-04-10 10:08:00,70.1,59.5,30.15,South,189,0.0,0.0,69,0.00,,---,0.00,VWS V14.01,2013-04-10 14:08:00,
2013-04-10 10:13:00,69.5,59.3,30.15,SSW,196,0.0,0.0,70,0.00,,---,0.00,VWS V14.01,2013-04-10 14:13:00,
2013-04-10 10:18:00,69.6,59.8,30.15,SSW,196,0.0,0.0,71,0.00,,---,0.00,VWS V14.01,2013-04-10 14:18:00,
2013-04-10 10:23:00,69.9,59.7,30.14,SSW,196,0.0,0.0,70,0.00,,---,0.00,VWS V14.01,2013-04-10 14:23:00,
2013-04-10 10:28:00,70.7,60.0,30.15,SSW,195,0.0,0.0,69,0.00,,---,0.00,VWS V14.01,2013-04-10 14:28:00,
2013-04-10 10:30:00,61.9,56.3,30.12,North,0,0.0,0.0,82,0.00,,---,0.00,VWS V14.01,2013-04-10 14:30:00,
2013-04-10 10:33:00,70.2,59.6,30.15,SSW,195,0.0,0.0,69,0.00,,---,0.00,VWS V14.01,2013-04-10 14:33:00,
2013-04-10 10:38:00,69.7,59.5,30.15,South,185,0.0,0.0,70,0.00,,---,0.00,VWS V14.01,2013-04-10 14:38:00,
2013-04-10 10:43:00,69.4,59.6,30.15,SSW,196,0.0,0.0,71,0.00,,---,0.00,VWS V14.01,2013-04-10 14:43:00,
2013-04-10 10:48:00,69.1,59.3,30.15,SSW,196,0.0,0.0,71,0.00,,---,0.00,VWS V14.01,2013-04-10 14:48:00,
2013-04-10 10:53:00,69.2,59.8,30.15,South,190,0.0,0.0,72,0.00,,---,0.00,VWS V14.01,2013-04-10 14:53:00,
2013-04-10 10:58:00,69.3,59.9,30.15,SSW,194,0.0,0.0,72,0.00,,---,0.00,VWS V14.01,2013-04-10 14:58:00,
2013-04-10 11:00:00,69.4,60.0,30.15,SSW,208,0.0,0.0,72,0.00,,---,0.00,VWS V14.01,2013-04-10 15:00:00,
2013-04-10 11:03:00,69.5,59.7,30.15,SSW,196,0.0,0.0,71,0.00,,---,0.00,VWS V14.01,2013-04-10 15:03:00,
2013-04-10 11:08:00,69.9,60.5,30.15,SSW,203,0.0,0.0,72,0.00,,---,0.00,VWS V14.01,2013-04-10 15:08:00,
2013-04-10 11:13:00,70.2,60.4,30.15,SSW,195,0.0,0.0,71,0.00,,---,0.00,VWS V14.01,2013-04-10 15:13:00,
2013-04-10 11:18:00,70.1,59.9,30.15,SSW,196,0.0,0.0,70,0.00,,---,0.00,VWS V14.01,2013-04-10 15:18:00,
2013-04-10 11:23:00,69.5,59.7,30.15,SSW,204,0.0,0.0,71,0.00,,---,0.00,VWS V14.01,2013-04-10 15:23:00,
2013-04-10 11:28:00,70.0,60.2,30.15,SSW,194,0.0,0.0,71,0.00,,---,0.00,VWS V14.01,2013-04-10 15:28:00,
2013-04-10 11:30:00,65.4,59.4,30.14,WNW,292,0.0,0.0,81,0.00,,---,0.00,VWS V14.01,2013-04-10 15:30:00,
2013-04-10 11:33:00,70.1,60.3,30.15,South,190,0.0,0.0,71,0.00,,---,0.00,VWS V14.01,2013-04-10 15:33:00,
2013-04-10 11:38:00,70.1,60.3,30.15,South,191,0.0,0.0,71,0.00,,---,0.00,VWS V14.01,2013-04-10 15:38:00,
2013-04-10 11:43:00,70.2,60.4,30.15,SSW,204,0.0,0.0,71,0.00,,---,0.00,VWS V14.01,2013-04-10 15:43:00,
2013-04-10 11:48:00,70.6,60.8,30.15,SSW,198,0.0,0.0,71,0.00,,---,0.00,VWS V14.01,2013-04-10 15:48:00,
2013-04-10 11:53:00,70.5,60.3,30.15,South,189,0.0,0.0,70,0.00,,---,0.00,VWS V14.01,2013-04-10 15:53:00,
2013-04-10 11:58:00,70.4,60.6,30.15,South,190,0.0,0.0,71,0.00,,---,0.00,VWS V14.01,2013-04-10 15:58:00,
2013-04-10 12:00:00,67.6,60.1,30.14,West,263,0.0,0.0,77,0.00,,---,0.00,VWS V14.01,2013-04-10 16:00:00,
2013-04-10 12:03:00,70.2,60.4,30.15,South,188,0.0,0.0,71,0.00,,---,0.00,VWS V14.01,2013-04-10 16:03:00,
2013-04-10 12:08:00,69.6,60.2,30.14,South,174,0.0,0.0,72,0.00,,---,0.00,VWS V14.01,2013-04-10 16:08:00,
2013-04-10 12:13:00,69.4,60.4,30.14,South,190,0.0,0.0,73,0.00,,---,0.00,VWS V14.01,2013-04-10 16:13:00,
2013-04-10 12:18:00,69.3,60.3,30.14,South,190,0.0,0.0,73,0.00,,---,0.00,VWS V14.01,2013-04-10 16:18:00,
2013-04-10 12:23:00,69.1,60.1,30.13,South,182,0.0,0.0,73,0.00,,---,0.00,VWS V14.01,2013-04-10 16:23:00,
2013-04-10 12:28:00,69.1,60.5,30.13,SSW,194,0.0,0.0,74,0.00,,---,0.00,VWS V14.01,2013-04-10 16:28:00,
2013-04-10 12:30:00,70.1,60.3,30.15,SW,232,0.0,0.0,71,0.00,,---,0.00,VWS V14.01,2013-04-10 16:30:00,
2013-04-10 12:33:00,69.4,60.4,30.13,South,180,0.0,0.0,73,0.00,,---,0.00,VWS V14.01,2013-04-10 16:33:00,
2013-04-10 12:38:00,69.8,60.4,30.13,SSW,210,0.0,0.0,72,0.00,,---,0.00,VWS V14.01,2013-04-10 16:38:00,
2013-04-10 12:43:00,70.0,59.8,30.13,SSW,208,0.0,0.0,70,0.00,,---,0.00,VWS V14.01,2013-04-10 16:43:00,
2013-04-10 12:48:00,70.3,60.1,30.13,South,186,0.0,0.0,70,0.00,,---,0.00,VWS V14.01,2013-04-10 16:48:00,
2013-04-10 12:53:00,70.5,60.3,30.13,SSW,202,0.0,0.0,70,0.00,,---,0.00,VWS V14.01,2013-04-10 16:53:00,
2013-04-10 12:58:00,70.4,59.8,30.12,South,188,0.0,0.0,69,0.00,,---,0.00,VWS V14.01,2013-04-10 16:58:00,
2013-04-10 13:00:00,71.0,59.9,30.15,South,191,0.0,0.0,68,0.00,,---,0.00,VWS V14.01,2013-04-10 17:00:00,
2013-04-10 13:03:00,70.6,60.0,30.12,SSW,209,0.0,0.0,69,0.00,,---,0.00,VWS V14.01,2013-04-10 17:03:00,
2013-04-10 13:08:00,70.5,60.3,30.12,SSW,204,0.0,0.0,70,0.00,,---,0.00,VWS V14.01,2013-04-10 17:08:00,
2013-04-10 13:13:00,70.7,60.0,30.12,South,186,0.0,0.0,69,0.00,,---,0.00,VWS V14.01,2013-04-10 17:13:00,
2013-04-10 13:18:00,70.7,59.6,30.12,SSW,198,0.0,0.0,68,0.00,,---,0.00,VWS V14.01,2013-04-10 17:18:00,
2013-04-10 13:23:00,70.6,60.3,30.11,South,188,0.0,0.0,70,0.00,,---,0.00,VWS V14.01,2013-04-10 17:23:00,
2013-04-10 13:28:00,70.6,60.3,30.11,South,180,0.0,0.0,70,0.00,,---,0.00,VWS V14.01,2013-04-10 17:28:00,
2013-04-10 13:30:00,70.7,59.6,30.14,South,190,0.0,0.0,68,0.00,,---,0.00,VWS V14.01,2013-04-10 17:30:00,
2013-04-10 13:33:00,70.3,59.7,30.11,SSW,194,0.0,0.0,69,0.00,,---,0.00,VWS V14.01,2013-04-10 17:33:00,
2013-04-10 13:38:00,70.4,59.8,30.11,SSW,194,0.0,0.0,69,0.00,,---,0.00,VWS V14.01,2013-04-10 17:38:00,
2013-04-10 13:43:00,70.5,60.3,30.11,SSW,197,0.0,0.0,70,0.00,,---,0.00,VWS V14.01,2013-04-10 17:43:00,
2013-04-10 13:48:00,70.3,59.7,30.11,SSW,192,0.0,0.0,69,0.00,,---,0.00,VWS V14.01,2013-04-10 17:48:00,
2013-04-10 13:53:00,70.7,59.6,30.10,SSW,205,0.0,0.0,68,0.00,,---,0.00,VWS V14.01,2013-04-10 17:53:00,
2013-04-10 13:58:00,70.9,60.2,30.11,SSW,197,0.0,0.0,69,0.00,,---,0.00,VWS V14.01,2013-04-10 17:58:00,
2013-04-10 14:00:00,69.4,60.0,30.15,SSW,208,0.0,0.0,72,0.00,,---,0.00,VWS V14.01,2013-04-10 18:00:00,
2013-04-10 14:03:00,71.2,60.5,30.11,SSW,203,0.0,0.0,69,0.00,,---,0.00,VWS V14.01,2013-04-10 18:03:00,
2013-04-10 14:08:00,70.8,60.1,30.11,SSW,203,0.0,0.0,69,0.00,,---,0.00,VWS V14.01,2013-04-10 18:08:00,
2013-04-10 14:13:00,70.5,60.3,30.11,SSW,200,0.0,0.0,70,0.00,,---,0.00,VWS V14.01,2013-04-10 18:13:00,
2013-04-10 14:18:00,70.3,60.1,30.10,SSW,207,0.0,0.0,70,0.00,,---,0.00,VWS V14.01,2013-04-10 18:18:00,
2013-04-10 14:23:00,70.6,60.0,30.10,SSW,208,0.0,0.0,69,0.00,,---,0.00,VWS V14.01,2013-04-10 18:23:00,
2013-04-10 14:28:00,71.0,60.3,30.10,SSW,192,0.0,0.0,69,0.00,,---,0.00,VWS V14.01,2013-04-10 18:28:00,
2013-04-10 14:30:00,70.2,60.4,30.15,SSW,210,0.0,0.0,71,0.00,,---,0.00,VWS V14.01,2013-04-10 18:30:00,
2013-04-10 14:33:00,70.7,60.0,30.10,SSW,197,0.0,0.0,69,0.00,,---,0.00,VWS V14.01,2013-04-10 18:33:00,
2013-04-10 14:38:00,70.6,60.0,30.10,SSW,213,0.0,0.0,69,0.00,,---,0.00,VWS V14.01,2013-04-10 18:38:00,
2013-04-10 14:43:00,71.3,60.6,30.09,SSW,196,0.0,0.0,69,0.00,,---,0.00,VWS V14.01,2013-04-10 18:43:00,
2013-04-10 14:48:00,71.1,60.0,30.09,SSW,192,0.0,0.0,68,0.00,,---,0.00,VWS V14.01,2013-04-10 18:48:00,
2013-04-10 14:53:00,70.8,60.1,30.09,SSW,213,0.0,0.0,69,0.00,,---,0.00,VWS V14.01,2013-04-10 18:53:00,
2013-04-10 14:58:00,70.7,60.0,30.08,SSW,200,0.0,0.0,69,0.00,,---,0.00,VWS V14.01,2013-04-10 18:58:00,
2013-04-10 15:00:00,70.4,60.6,30.15,SSW,193,0.0,0.0,71,0.00,,---,0.00,VWS V14.01,2013-04-10 19:00:00,
2013-04-10 15:03:00,70.6,59.5,30.08,South,188,0.0,0.0,68,0.00,,---,0.00,VWS V14.01,2013-04-10 19:03:00,
2013-04-10 15:08:00,70.6,60.0,30.08,SSW,192,0.0,0.0,69,0.00,,---,0.00,VWS V14.01,2013-04-10 19:08:00,
2013-04-10 15:13:00,70.5,59.8,30.07,SSW,201,0.0,0.0,69,0.00,,---,0.00,VWS V14.01,2013-04-10 19:13:00,
2013-04-10 15:18:00,70.6,59.5,30.07,SSW,200,0.0,0.0,68,0.00,,---,0.00,VWS V14.01,2013-04-10 19:18:00,
2013-04-10 15:23:00,70.4,59.3,30.08,SSW,195,0.0,0.0,68,0.00,,---,0.00,VWS V14.01,2013-04-10 19:23:00,
2013-04-10 15:28:00,70.9,59.8,30.08,SSW,194,0.0,0.0,68,0.00,,---,0.00,VWS V14.01,2013-04-10 19:28:00,
2013-04-10 15:30:00,69.2,60.2,30.13,South,184,0.0,0.0,73,0.00,,---,0.00,VWS V14.01,2013-04-10 19:30:00,
2013-04-10 15:33:00,71.3,59.8,30.08,SSW,209,0.0,0.0,67,0.00,,---,0.00,VWS V14.01,2013-04-10 19:33:00,
2013-04-10 15:38:00,71.1,59.6,30.07,SSW,208,0.0,0.0,67,0.00,,---,0.00,VWS V14.01,2013-04-10 19:38:00,
2013-04-10 15:43:00,70.7,59.2,30.07,SSW,196,0.0,0.0,67,0.00,,---,0.00,VWS V14.01,2013-04-10 19:43:00,
2013-04-10 15:48:00,70.6,59.1,30.07,SSW,200,0.0,0.0,67,0.00,,---,0.00,VWS V14.01,2013-04-10 19:48:00,
2013-04-10 15:53:00,70.8,59.3,30.07,SSW,197,0.0,0.0,67,0.00,,---,0.00,VWS V14.01,2013-04-10 19:53:00,
2013-04-10 15:58:00,70.8,59.3,30.07,SSW,201,0.0,0.0,67,0.00,,---,0.00,VWS V14.01,2013-04-10 19:58:00,
2013-04-10 16:00:00,70.5,59.8,30.12,SSW,205,0.0,0.0,69,0.00,,---,0.00,VWS V14.01,2013-04-10 20:00:00,
2013-04-10 16:03:00,70.9,59.4,30.06,SSW,194,0.0,0.0,67,0.00,,---,0.00,VWS V14.01,2013-04-10 20:03:00,
2013-04-10 16:08:00,70.7,59.2,30.07,SSW,203,0.0,0.0,67,0.00,,---,0.00,VWS V14.01,2013-04-10 20:08:00,
2013-04-10 16:13:00,70.7,59.2,30.07,SSW,211,0.0,0.0,67,0.00,,---,0.00,VWS V14.01,2013-04-10 20:13:00,
2013-04-10 16:18:00,70.7,59.2,30.06,South,177,0.0,0.0,67,0.00,,---,0.00,VWS V14.01,2013-04-10 20:18:00,
2013-04-10 16:23:00,71.0,59.9,30.06,SSW,212,0.0,0.0,68,0.00,,---,0.00,VWS V14.01,2013-04-10 20:23:00,
2013-04-10 16:28:00,71.3,59.4,30.06,SSW,200,0.0,0.0,66,0.00,,---,0.00,VWS V14.01,2013-04-10 20:28:00,
2013-04-10 16:30:00,70.4,59.8,30.11,SSW,194,0.0,0.0,69,0.00,,---,0.00,VWS V14.01,2013-04-10 20:30:00,
2013-04-10 16:33:00,71.3,58.9,30.06,SSW,211,0.0,0.0,65,0.00,,---,0.00,VWS V14.01,2013-04-10 20:33:00,
2013-04-10 16:38:00,71.5,59.1,30.06,SSW,193,0.0,0.0,65,0.00,,---,0.00,VWS V14.01,2013-04-10 20:38:00,
2013-04-10 16:43:00,71.6,59.7,30.06,SSW,197,0.0,0.0,66,0.00,,---,0.00,VWS V14.01,2013-04-10 20:43:00,
2013-04-10 16:48:00,71.5,59.6,30.05,SSW,210,0.0,0.0,66,0.00,,---,0.00,VWS V14.01,2013-04-10 20:48:00,
2013-04-10 16:55:00,71.0,59.5,30.06,SSW,192,0.0,0.0,67,0.00,,---,0.00,VWS V14.01,2013-04-10 20:55:00,
2013-04-10 17:00:00,70.8,58.9,30.05,SSW,193,0.0,0.0,66,0.00,,---,0.00,VWS V14.01,2013-04-10 21:00:00,
2013-04-10 17:05:00,70.6,59.1,30.05,South,178,0.0,0.0,67,0.00,,---,0.00,VWS V14.01,2013-04-10 21:05:00,
2013-04-10 17:10:00,70.4,59.3,30.05,SSW,209,0.0,0.0,68,0.00,,---,0.00,VWS V14.01,2013-04-10 21:10:00,
2013-04-10 17:15:00,70.4,59.3,30.05,South,181,0.0,0.0,68,0.00,,---,0.00,VWS V14.01,2013-04-10 21:15:00,
2013-04-10 17:20:00,70.3,59.2,30.05,SW,217,0.0,0.0,68,0.00,,---,0.00,VWS V14.01,2013-04-10 21:20:00,
2013-04-10 17:25:00,70.2,59.6,30.05,SSW,199,0.0,0.0,69,0.00,,---,0.00,VWS V14.01,2013-04-10 21:25:00,
2013-04-10 17:30:00,70.0,59.8,30.05,SSW,207,0.0,0.0,70,0.00,,---,0.00,VWS V14.01,2013-04-10 21:30:00,
2013-04-10 17:35:00,70.1,59.9,30.05,SSW,194,0.0,0.0,70,0.00,,---,0.00,VWS V14.01,2013-04-10 21:35:00,
2013-04-10 17:40:00,70.1,59.9,30.05,SSW,210,0.0,0.0,70,0.00,,---,0.00,VWS V14.01,2013-04-10 21:40:00,
2013-04-10 17:45:00,70.3,60.5,30.05,South,190,0.0,0.0,71,0.00,,---,0.00,VWS V14.01,2013-04-10 21:45:00,
2013-04-10 17:50:00,70.1,59.9,30.05,SSW,212,0.0,0.0,70,0.00,,---,0.00,VWS V14.01,2013-04-10 21:50:00,
2013-04-10 17:55:00,69.9,60.1,30.05,SSW,198,0.0,0.0,71,0.00,,---,0.00,VWS V14.01,2013-04-10 21:55:00,
2013-04-10 18:00:00,69.8,60.0,30.05,SSW,193,0.0,0.0,71,0.00,,---,0.00,VWS V14.01,2013-04-10 22:00:00,
2013-04-10 18:05:00,69.8,60.0,30.05,SSW,204,0.0,0.0,71,0.00,,---,0.00,VWS V14.01,2013-04-10 22:05:00,
2013-04-10 18:10:00,69.7,60.3,30.05,SSW,195,0.0,0.0,72,0.00,,---,0.00,VWS V14.01,2013-04-10 22:10:00,
2013-04-10 18:15:00,69.4,60.0,30.05,South,188,0.0,0.0,72,0.00,,---,0.00,VWS V14.01,2013-04-10 22:15:00,
2013-04-10 18:20:00,69.2,60.2,30.05,SSW,194,0.0,0.0,73,0.00,,---,0.00,VWS V14.01,2013-04-10 22:20:00,
2013-04-10 18:25:00,69.0,60.4,30.05,SSW,193,0.0,0.0,74,0.00,,---,0.00,VWS V14.01,2013-04-10 22:25:00,
2013-04-10 18:30:00,68.6,60.0,30.05,SSW,200,0.0,0.0,74,0.00,,---,0.00,VWS V14.01,2013-04-10 22:30:00,
2013-04-10 18:35:00,68.5,60.3,30.05,SSW,194,0.0,0.0,75,0.00,,---,0.00,VWS V14.01,2013-04-10 22:35:00,
2013-04-10 18:40:00,68.3,60.1,30.05,SSW,205,0.0,0.0,75,0.00,,---,0.00,VWS V14.01,2013-04-10 22:40:00,
2013-04-10 18:45:00,68.2,60.3,30.04,SSW,198,0.0,0.0,76,0.00,,---,0.00,VWS V14.01,2013-04-10 22:45:00,
2013-04-10 18:50:00,68.1,60.3,30.05,SSW,200,0.0,0.0,76,0.00,,---,0.00,VWS V14.01,2013-04-10 22:50:00,
2013-04-10 18:55:00,68.1,60.3,30.04,SW,223,0.0,0.0,76,0.00,,---,0.00,VWS V14.01,2013-04-10 22:55:00,
2013-04-10 19:00:00,68.0,60.2,30.04,SSW,205,0.0,0.0,76,0.00,,---,0.00,VWS V14.01,2013-04-10 23:00:00,
2013-04-10 19:05:00,67.8,60.3,30.04,SSW,207,0.0,0.0,77,0.00,,---,0.00,VWS V14.01,2013-04-10 23:05:00,
2013-04-10 19:10:00,67.5,60.0,30.04,SSW,205,0.0,0.0,77,0.00,,---,0.00,VWS V14.01,2013-04-10 23:10:00,
2013-04-10 19:14:00,67.2,59.8,30.04,SW,216,0.0,0.0,77,0.00,,---,0.00,VWS V14.01,2013-04-10 23:14:00,
2013-04-10 19:19:00,67.0,59.9,30.04,SW,231,0.0,0.0,78,0.00,,---,0.00,VWS V14.01,2013-04-10 23:19:00,
2013-04-10 19:24:00,66.7,59.6,30.03,SW,234,0.0,0.0,78,0.00,,---,0.00,VWS V14.01,2013-04-10 23:24:00,
2013-04-10 19:29:00,66.4,59.3,30.03,SW,228,0.0,0.0,78,0.00,,---,0.00,VWS V14.01,2013-04-10 23:29:00,
2013-04-10 19:30:00,71.4,59.5,30.06,SW,223,0.0,0.0,66,0.00,,---,0.00,VWS V14.01,2013-04-10 23:30:00,
2013-04-10 19:34:00,66.3,59.6,30.03,SW,214,0.0,0.0,79,0.00,,---,0.00,VWS V14.01,2013-04-10 23:34:00,
2013-04-10 19:39:00,66.2,59.5,30.03,SSW,203,0.0,0.0,79,0.00,,---,0.00,VWS V14.01,2013-04-10 23:39:00,
2013-04-10 19:44:00,66.0,59.3,30.03,SSW,202,0.0,0.0,79,0.00,,---,0.00,VWS V14.01,2013-04-10 23:44:00,
2013-04-10 19:49:00,65.6,58.9,30.03,SW,227,0.0,0.0,79,0.00,,---,0.00,VWS V14.01,2013-04-10 23:49:00,
2013-04-10 19:54:00,65.4,59.1,30.03,SSW,212,0.0,0.0,80,0.00,,---,0.00,VWS V14.01,2013-04-10 23:54:00,
2013-04-10 19:59:00,65.3,59.0,30.03,SSW,202,0.0,0.0,80,0.00,,---,0.00,VWS V14.01,2013-04-10 23:59:00,
2013-04-10 20:00:00,70.7,59.2,30.05,SSW,195,0.0,0.0,67,0.00,,---,0.00,VWS V14.01,2013-04-11 00:00:00,
2013-04-10 20:04:00,65.3,59.3,30.02,SW,214,0.0,0.0,81,0.00,,---,0.00,VWS V14.01,2013-04-11 00:04:00,
2013-04-10 20:09:00,65.3,59.3,30.03,SW,220,0.0,0.0,81,0.00,,---,0.00,VWS V14.01,2013-04-11 00:09:00,
2013-04-10 20:14:00,65.3,59.3,30.03,SW,218,0.0,0.0,81,0.00,,---,0.00,VWS V14.01,2013-04-11 00:14:00,
2013-04-10 20:19:00,65.3,59.3,30.03,SSW,209,0.0,0.0,81,0.00,,---,0.00,VWS V14.01,2013-04-11 00:19:00,
2013-04-10 20:24:00,65.3,59.3,30.03,SSW,209,0.0,0.0,81,0.00,,---,0.00,VWS V14.01,2013-04-11 00:24:00,
2013-04-10 20:29:00,65.3,59.3,30.02,SSW,209,0.0,0.0,81,0.00,,---,0.00,VWS V14.01,2013-04-11 00:29:00,
2013-04-10 20:30:00,70.1,59.9,30.05,South,188,0.0,0.0,70,0.00,,---,0.00,VWS V14.01,2013-04-11 00:30:00,
2013-04-10 20:34:00,65.3,59.3,30.03,SSW,209,0.0,0.0,81,0.00,,---,0.00,VWS V14.01,2013-04-11 00:34:00,
2013-04-10 20:39:00,65.3,59.3,30.03,SSW,209,0.0,0.0,81,0.00,,---,0.00,VWS V14.01,2013-04-11 00:39:00,
2013-04-10 20:44:00,65.3,59.3,30.03,SSW,209,0.0,0.0,81,0.00,,---,0.00,VWS V14.01,2013-04-11 00:44:00,
2013-04-10 20:49:00,65.3,59.3,30.03,SSW,209,0.0,0.0,81,0.00,,---,0.00,VWS V14.01,2013-04-11 00:49:00,
2013-04-10 20:54:00,65.3,59.3,30.03,SSW,209,0.0,0.0,81,0.00,,---,0.00,VWS V14.01,2013-04-11 00:54:00,
2013-04-10 20:59:00,65.3,59.3,30.03,SSW,209,0.0,0.0,81,0.00,,---,0.00,VWS V14.01,2013-04-11 00:59:00,
2013-04-10 21:00:00,69.8,60.0,30.05,SSW,200,0.0,0.0,71,0.00,,---,0.00,VWS V14.01,2013-04-11 01:00:00,
2013-04-10 21:04:00,65.3,59.3,30.03,SSW,209,0.0,0.0,81,0.00,,---,0.00,VWS V14.01,2013-04-11 01:04:00,
2013-04-10 21:09:00,65.3,59.3,30.03,SSW,209,0.0,0.0,81,0.00,,---,0.00,VWS V14.01,2013-04-11 01:09:00,
2013-04-10 21:14:00,65.3,59.3,30.03,SSW,209,0.0,0.0,81,0.00,,---,0.00,VWS V14.01,2013-04-11 01:14:00,
2013-04-10 21:19:00,65.3,59.3,30.03,SSW,209,0.0,0.0,81,0.00,,---,0.00,VWS V14.01,2013-04-11 01:19:00,
2013-04-10 21:24:00,65.3,59.3,30.04,SSW,209,0.0,0.0,81,0.00,,---,0.00,VWS V14.01,2013-04-11 01:24:00,
2013-04-10 21:29:00,65.3,59.3,30.04,SSW,209,0.0,0.0,81,0.00,,---,0.00,VWS V14.01,2013-04-11 01:29:00,
2013-04-10 21:30:00,68.6,60.4,30.05,SSW,194,0.0,0.0,75,0.00,,---,0.00,VWS V14.01,2013-04-11 01:30:00,
2013-04-10 21:34:00,65.3,59.3,30.04,SSW,209,0.0,0.0,81,0.00,,---,0.00,VWS V14.01,2013-04-11 01:34:00,
2013-04-10 21:39:00,65.3,59.3,30.04,SSW,209,0.0,0.0,81,0.00,,---,0.00,VWS V14.01,2013-04-11 01:39:00,
2013-04-10 21:44:00,65.3,59.3,30.04,SSW,209,0.0,0.0,81,0.00,,---,0.00,VWS V14.01,2013-04-11 01:44:00,
2013-04-10 21:49:00,65.3,59.3,30.04,SSW,209,0.0,0.0,81,0.00,,---,0.00,VWS V14.01,2013-04-11 01:49:00,
2013-04-10 21:54:00,65.3,59.3,30.04,SSW,209,0.0,0.0,81,0.00,,---,0.00,VWS V14.01,2013-04-11 01:54:00,
2013-04-10 21:59:00,65.3,59.3,30.04,SSW,209,0.0,0.0,81,0.00,,---,0.00,VWS V14.01,2013-04-11 01:59:00,
2013-04-10 22:00:00,68.0,60.2,30.04,SSW,202,0.0,0.0,76,0.00,,---,0.00,VWS V14.01,2013-04-11 02:00:00,
2013-04-10 22:04:00,65.3,59.3,30.04,SSW,209,0.0,0.0,81,0.00,,---,0.00,VWS V14.01,2013-04-11 02:04:00,
2013-04-10 22:09:00,65.3,59.3,30.04,SSW,209,0.0,0.0,81,0.00,,---,0.00,VWS V14.01,2013-04-11 02:09:00,
2013-04-10 22:14:00,65.3,59.3,30.04,SSW,209,0.0,0.0,81,0.00,,---,0.00,VWS V14.01,2013-04-11 02:14:00,
2013-04-10 22:19:00,65.3,59.3,30.03,SSW,209,0.0,0.0,81,0.00,,---,0.00,VWS V14.01,2013-04-11 02:19:00,
2013-04-10 22:24:00,65.3,59.3,30.03,SSW,209,0.0,0.0,81,0.00,,---,0.00,VWS V14.01,2013-04-11 02:24:00,
2013-04-10 22:29:00,65.3,59.3,30.03,SSW,209,0.0,0.0,81,0.00,,---,0.00,VWS V14.01,2013-04-11 02:29:00,
2013-04-10 22:30:00,66.4,59.3,30.03,SSW,210,0.0,0.0,78,0.00,,---,0.00,VWS V14.01,2013-04-11 02:30:00,
2013-04-10 22:34:00,65.3,59.3,30.03,SSW,209,0.0,0.0,81,0.00,,---,0.00,VWS V14.01,2013-04-11 02:34:00,
2013-04-10 22:39:00,65.3,59.3,30.03,SSW,209,0.0,0.0,81,0.00,,---,0.00,VWS V14.01,2013-04-11 02:39:00,
2013-04-10 22:44:00,65.3,59.3,30.03,SSW,209,0.0,0.0,81,0.00,,---,0.00,VWS V14.01,2013-04-11 02:44:00,
2013-04-10 22:49:00,65.3,59.3,30.03,SSW,209,0.0,0.0,81,0.00,,---,0.00,VWS V14.01,2013-04-11 02:49:00,
2013-04-10 22:54:00,65.3,59.3,30.02,SSW,209,0.0,0.0,81,0.00,,---,0.00,VWS V14.01,2013-04-11 02:54:00,
2013-04-10 22:59:00,65.3,59.3,30.02,SSW,209,0.0,0.0,81,0.00,,---,0.00,VWS V14.01,2013-04-11 02:59:00,
2013-04-10 23:00:00,65.3,59.0,30.03,SSW,194,0.0,0.0,80,0.00,,---,0.00,VWS V14.01,2013-04-11 03:00:00,
2013-04-10 23:04:00,65.3,59.3,30.02,SSW,209,0.0,0.0,81,0.00,,---,0.00,VWS V14.01,2013-04-11 03:04:00,
2013-04-10 23:09:00,65.3,59.3,30.02,SSW,209,0.0,0.0,81,0.00,,---,0.00,VWS V14.01,2013-04-11 03:09:00,
2013-04-10 23:14:00,65.3,59.3,30.01,SSW,209,0.0,0.0,81,0.00,,---,0.00,VWS V14.01,2013-04-11 03:14:00,
2013-04-10 23:19:00,65.3,59.3,30.01,SSW,209,0.0,0.0,81,0.00,,---,0.00,VWS V14.01,2013-04-11 03:19:00,
2013-04-10 23:24:00,65.3,59.3,30.02,SSW,209,0.0,0.0,81,0.00,,---,0.00,VWS V14.01,2013-04-11 03:24:00,
2013-04-10 23:29:00,65.3,59.3,30.01,SSW,209,0.0,0.0,81,0.00,,---,0.00,VWS V14.01,2013-04-11 03:29:00,
2013-04-10 23:30:00,65.3,59.3,30.02,SSW,209,0.0,0.0,81,0.00,,---,0.00,VWS V14.01,2013-04-11 03:30:00,
2013-04-10 23:34:00,65.3,59.3,30.01,SSW,209,0.0,0.0,81,0.00,,---,0.00,VWS V14.01,2013-04-11 03:34:00,
2013-04-10 23:39:00,64.5,63.0,30.01,WSW,246,1.0,2.0,95,0.00,,---,0.00,VWS V14.01,2013-04-11 03:39:00,
2013-04-10 23:44:00,64.5,63.0,30.02,WSW,256,1.0,2.0,95,0.00,,---,0.00,VWS V14.01,2013-04-11 03:44:00,
2013-04-10 23:49:00,64.4,62.9,30.01,WSW,246,0.0,2.0,95,0.00,,---,0.00,VWS V14.01,2013-04-11 03:49:00,
2013-04-10 23:54:00,64.3,62.8,30.01,WSW,245,1.0,2.0,95,0.00,,---,0.00,VWS V14.01,2013-04-11 03:54:00,
2013-04-10 23:59:00,64.3,62.8,30.01,WSW,245,1.0,2.0,95,0.00,,---,0.00,VWS V14.01,2013-04-11 03:59:00,